sensor_id;sensor_type;location;lat;lon;timestamp;P1;durP1;ratioP1;P2;durP2;ratioP2
39782;SDS011;25462;51.164;17.100;2022-10-16T00:02:22;0.50;;;0.40;;
39782;SDS011;25462;51.164;17.100;2022-10-16T00:07:26;1.00;;;0.90;;
39782;SDS011;25462;51.164;17.100;2022-10-16T00:12:30;0.50;;;0.50;;
39782;SDS011;25462;51.164;17.100;2022-10-16T00:17:33;3.90;;;1.40;;
39782;SDS011;25462;51.164;17.100;2022-10-16T00:22:37;1.20;;;1.10;;
39782;SDS011;25462;51.164;17.100;2022-10-16T00:27:40;1.30;;;1.30;;
39782;SDS011;25462;51.164;17.100;2022-10-16T00:32:43;7.30;;;1.60;;
39782;SDS011;25462;51.164;17.100;2022-10-16T00:37:46;1.40;;;1.00;;
39782;SDS011;25462;51.164;17.100;2022-10-16T00:42:50;1.30;;;1.20;;
39782;SDS011;25462;51.164;17.100;2022-10-16T00:47:54;1.10;;;0.90;;
39782;SDS011;25462;51.164;17.100;2022-10-16T00:53:09;1.30;;;1.00;;
39782;SDS011;25462;51.164;17.100;2022-10-16T00:58:15;0.80;;;0.80;;
39782;SDS011;25462;51.164;17.100;2022-10-16T01:03:23;1.20;;;1.10;;
39782;SDS011;25462;51.164;17.100;2022-10-16T01:08:39;0.60;;;0.50;;
39782;SDS011;25462;51.164;17.100;2022-10-16T01:13:50;0.70;;;0.60;;
39782;SDS011;25462;51.164;17.100;2022-10-16T01:19:12;0.90;;;0.70;;
39782;SDS011;25462;51.164;17.100;2022-10-16T01:24:37;7.00;;;2.00;;
39782;SDS011;25462;51.164;17.100;2022-10-16T01:29:53;0.70;;;0.60;;
39782;SDS011;25462;51.164;17.100;2022-10-16T01:35:09;0.90;;;0.90;;
39782;SDS011;25462;51.164;17.100;2022-10-16T01:40:16;2.30;;;0.80;;
39782;SDS011;25462;51.164;17.100;2022-10-16T01:45:20;0.30;;;0.30;;
39782;SDS011;25462;51.164;17.100;2022-10-16T01:50:24;0.60;;;0.60;;
39782;SDS011;25462;51.164;17.100;2022-10-16T01:55:29;2.40;;;1.00;;
39782;SDS011;25462;51.164;17.100;2022-10-16T02:00:36;0.60;;;0.60;;
39782;SDS011;25462;51.164;17.100;2022-10-16T02:10:56;1.00;;;0.40;;
39782;SDS011;25462;51.164;17.100;2022-10-16T02:16:00;0.40;;;0.40;;
39782;SDS011;25462;51.164;17.100;2022-10-16T02:21:13;0.40;;;0.40;;
39782;SDS011;25462;51.164;17.100;2022-10-16T02:26:26;1.80;;;1.10;;
39782;SDS011;25462;51.164;17.100;2022-10-16T02:31:32;0.50;;;0.40;;
39782;SDS011;25462;51.164;17.100;2022-10-16T02:36:37;2.10;;;1.20;;
39782;SDS011;25462;51.164;17.100;2022-10-16T02:41:42;0.40;;;0.40;;
39782;SDS011;25462;51.164;17.100;2022-10-16T02:46:45;0.10;;;0.10;;
39782;SDS011;25462;51.164;17.100;2022-10-16T02:51:48;0.40;;;0.40;;
39782;SDS011;25462;51.164;17.100;2022-10-16T02:56:52;0.40;;;0.40;;
39782;SDS011;25462;51.164;17.100;2022-10-16T03:01:55;0.70;;;0.40;;
39782;SDS011;25462;51.164;17.100;2022-10-16T03:06:58;0.80;;;0.60;;
39782;SDS011;25462;51.164;17.100;2022-10-16T03:12:01;0.30;;;0.30;;
39782;SDS011;25462;51.164;17.100;2022-10-16T03:17:05;0.20;;;0.20;;
39782;SDS011;25462;51.164;17.100;2022-10-16T03:22:09;3.20;;;0.80;;
39782;SDS011;25462;51.164;17.100;2022-10-16T03:27:12;1.70;;;0.70;;
39782;SDS011;25462;51.164;17.100;2022-10-16T03:32:15;0.70;;;0.70;;
39782;SDS011;25462;51.164;17.100;2022-10-16T03:37:19;0.40;;;0.40;;
39782;SDS011;25462;51.164;17.100;2022-10-16T03:42:22;0.20;;;0.20;;
39782;SDS011;25462;51.164;17.100;2022-10-16T03:47:25;0.90;;;0.90;;
39782;SDS011;25462;51.164;17.100;2022-10-16T03:52:30;1.30;;;1.30;;
39782;SDS011;25462;51.164;17.100;2022-10-16T03:57:33;0.50;;;0.30;;
39782;SDS011;25462;51.164;17.100;2022-10-16T04:02:36;0.20;;;0.20;;
39782;SDS011;25462;51.164;17.100;2022-10-16T04:07:39;1.60;;;0.50;;
39782;SDS011;25462;51.164;17.100;2022-10-16T04:12:43;0.40;;;0.40;;
39782;SDS011;25462;51.164;17.100;2022-10-16T04:17:46;0.60;;;0.60;;
39782;SDS011;25462;51.164;17.100;2022-10-16T04:22:49;1.80;;;0.80;;
39782;SDS011;25462;51.164;17.100;2022-10-16T04:27:53;0.70;;;0.60;;
39782;SDS011;25462;51.164;17.100;2022-10-16T04:32:56;0.30;;;0.30;;
39782;SDS011;25462;51.164;17.100;2022-10-16T04:38:00;0.80;;;0.80;;
39782;SDS011;25462;51.164;17.100;2022-10-16T04:43:03;2.00;;;1.90;;
39782;SDS011;25462;51.164;17.100;2022-10-16T04:48:07;0.30;;;0.30;;
39782;SDS011;25462;51.164;17.100;2022-10-16T04:53:10;1.00;;;0.50;;
39782;SDS011;25462;51.164;17.100;2022-10-16T04:58:13;0.80;;;0.80;;
39782;SDS011;25462;51.164;17.100;2022-10-16T05:03:17;0.90;;;0.90;;
39782;SDS011;25462;51.164;17.100;2022-10-16T05:08:20;0.90;;;0.70;;
39782;SDS011;25462;51.164;17.100;2022-10-16T05:13:23;1.30;;;1.00;;
39782;SDS011;25462;51.164;17.100;2022-10-16T05:18:27;1.10;;;0.90;;
39782;SDS011;25462;51.164;17.100;2022-10-16T05:23:31;0.30;;;0.30;;
39782;SDS011;25462;51.164;17.100;2022-10-16T05:28:36;1.10;;;1.10;;
39782;SDS011;25462;51.164;17.100;2022-10-16T05:33:40;0.20;;;0.20;;
39782;SDS011;25462;51.164;17.100;2022-10-16T05:38:44;4.00;;;0.60;;
39782;SDS011;25462;51.164;17.100;2022-10-16T05:43:51;0.30;;;0.30;;
39782;SDS011;25462;51.164;17.100;2022-10-16T05:48:55;7.00;;;0.60;;
39782;SDS011;25462;51.164;17.100;2022-10-16T05:53:59;0.90;;;0.90;;
39782;SDS011;25462;51.164;17.100;2022-10-16T05:59:05;1.50;;;0.90;;
39782;SDS011;25462;51.164;17.100;2022-10-16T06:04:09;1.50;;;0.90;;
39782;SDS011;25462;51.164;17.100;2022-10-16T06:09:20;2.00;;;0.80;;
39782;SDS011;25462;51.164;17.100;2022-10-16T06:14:24;1.00;;;0.50;;
39782;SDS011;25462;51.164;17.100;2022-10-16T06:19:27;0.10;;;0.10;;
39782;SDS011;25462;51.164;17.100;2022-10-16T06:24:30;0.70;;;0.70;;
39782;SDS011;25462;51.164;17.100;2022-10-16T06:29:34;1.40;;;0.70;;
39782;SDS011;25462;51.164;17.100;2022-10-16T06:34:53;0.40;;;0.40;;
39782;SDS011;25462;51.164;17.100;2022-10-16T06:39:56;0.20;;;0.20;;
39782;SDS011;25462;51.164;17.100;2022-10-16T06:45:00;0.90;;;0.80;;
39782;SDS011;25462;51.164;17.100;2022-10-16T06:50:10;1.00;;;0.90;;
39782;SDS011;25462;51.164;17.100;2022-10-16T06:55:13;1.00;;;0.80;;
39782;SDS011;25462;51.164;17.100;2022-10-16T07:00:20;0.60;;;0.60;;
39782;SDS011;25462;51.164;17.100;2022-10-16T07:05:24;0.50;;;0.50;;
39782;SDS011;25462;51.164;17.100;2022-10-16T07:10:27;0.60;;;0.60;;
39782;SDS011;25462;51.164;17.100;2022-10-16T07:15:30;0.80;;;0.80;;
39782;SDS011;25462;51.164;17.100;2022-10-16T07:20:35;3.10;;;0.60;;
39782;SDS011;25462;51.164;17.100;2022-10-16T07:25:38;0.70;;;0.10;;
39782;SDS011;25462;51.164;17.100;2022-10-16T07:30:44;0.80;;;0.70;;
39782;SDS011;25462;51.164;17.100;2022-10-16T07:35:52;0.20;;;0.20;;
39782;SDS011;25462;51.164;17.100;2022-10-16T07:40:59;1.30;;;0.90;;
39782;SDS011;25462;51.164;17.100;2022-10-16T07:46:07;0.40;;;0.40;;
39782;SDS011;25462;51.164;17.100;2022-10-16T07:51:14;0.30;;;0.30;;
39782;SDS011;25462;51.164;17.100;2022-10-16T07:56:19;0.60;;;0.60;;
39782;SDS011;25462;51.164;17.100;2022-10-16T08:01:26;0.40;;;0.40;;
39782;SDS011;25462;51.164;17.100;2022-10-16T08:06:30;1.10;;;0.60;;
39782;SDS011;25462;51.164;17.100;2022-10-16T08:11:38;1.40;;;0.50;;
39782;SDS011;25462;51.164;17.100;2022-10-16T08:16:42;1.00;;;0.10;;
39782;SDS011;25462;51.164;17.100;2022-10-16T08:21:49;0.00;;;0.00;;
39782;SDS011;25462;51.164;17.100;2022-10-16T08:26:53;0.40;;;0.40;;
39782;SDS011;25462;51.164;17.100;2022-10-16T08:32:00;1.60;;;0.60;;
39782;SDS011;25462;51.164;17.100;2022-10-16T08:37:03;0.50;;;0.50;;
39782;SDS011;25462;51.164;17.100;2022-10-16T08:47:20;0.60;;;0.50;;
39782;SDS011;25462;51.164;17.100;2022-10-16T08:52:29;0.30;;;0.30;;
39782;SDS011;25462;51.164;17.100;2022-10-16T08:57:33;1.20;;;1.10;;
39782;SDS011;25462;51.164;17.100;2022-10-16T09:02:37;0.10;;;0.10;;
39782;SDS011;25462;51.164;17.100;2022-10-16T09:13:22;4.70;;;0.70;;
39782;SDS011;25462;51.164;17.100;2022-10-16T09:24:14;0.40;;;0.40;;
39782;SDS011;25462;51.164;17.100;2022-10-16T09:29:20;1.50;;;0.90;;
39782;SDS011;25462;51.164;17.100;2022-10-16T09:34:30;0.50;;;0.50;;
39782;SDS011;25462;51.164;17.100;2022-10-16T09:39:51;0.60;;;0.40;;
39782;SDS011;25462;51.164;17.100;2022-10-16T09:44:59;0.20;;;0.20;;
39782;SDS011;25462;51.164;17.100;2022-10-16T09:50:05;0.70;;;0.70;;
39782;SDS011;25462;51.164;17.100;2022-10-16T09:55:30;0.20;;;0.20;;
39782;SDS011;25462;51.164;17.100;2022-10-16T10:00:39;1.10;;;1.00;;
39782;SDS011;25462;51.164;17.100;2022-10-16T10:05:47;0.70;;;0.70;;
39782;SDS011;25462;51.164;17.100;2022-10-16T10:10:51;0.40;;;0.30;;
39782;SDS011;25462;51.164;17.100;2022-10-16T10:16:00;0.20;;;0.20;;
39782;SDS011;25462;51.164;17.100;2022-10-16T10:21:12;0.10;;;0.10;;
39782;SDS011;25462;51.164;17.100;2022-10-16T10:26:18;0.10;;;0.10;;
39782;SDS011;25462;51.164;17.100;2022-10-16T10:31:29;1.90;;;0.70;;
39782;SDS011;25462;51.164;17.100;2022-10-16T10:36:39;0.70;;;0.70;;
39782;SDS011;25462;51.164;17.100;2022-10-16T11:24:43;0.10;;;0.10;;
39782;SDS011;25462;51.164;17.100;2022-10-16T11:29:59;1.00;;;0.30;;
39782;SDS011;25462;51.164;17.100;2022-10-16T11:35:12;0.00;;;0.00;;
39782;SDS011;25462;51.164;17.100;2022-10-16T11:40:31;0.30;;;0.00;;
39782;SDS011;25462;51.164;17.100;2022-10-16T11:45:39;0.30;;;0.20;;
39782;SDS011;25462;51.164;17.100;2022-10-16T11:56:12;0.30;;;0.30;;
39782;SDS011;25462;51.164;17.100;2022-10-16T12:12:27;0.30;;;0.30;;
39782;SDS011;25462;51.164;17.100;2022-10-16T12:17:40;0.40;;;0.40;;
39782;SDS011;25462;51.164;17.100;2022-10-16T12:22:48;1.90;;;0.20;;
39782;SDS011;25462;51.164;17.100;2022-10-16T12:27:57;2.90;;;1.40;;
39782;SDS011;25462;51.164;17.100;2022-10-16T12:33:19;4.60;;;0.10;;
39782;SDS011;25462;51.164;17.100;2022-10-16T12:38:26;0.00;;;0.00;;
39782;SDS011;25462;51.164;17.100;2022-10-16T12:43:46;0.30;;;0.30;;
39782;SDS011;25462;51.164;17.100;2022-10-16T12:49:04;0.20;;;0.20;;
39782;SDS011;25462;51.164;17.100;2022-10-16T12:54:37;2.30;;;1.00;;
39782;SDS011;25462;51.164;17.100;2022-10-16T13:32:40;0.30;;;0.30;;
39782;SDS011;25462;51.164;17.100;2022-10-16T13:37:44;0.30;;;0.30;;
39782;SDS011;25462;51.164;17.100;2022-10-16T13:42:50;0.40;;;0.40;;
39782;SDS011;25462;51.164;17.100;2022-10-16T13:48:01;17.10;;;0.60;;
39782;SDS011;25462;51.164;17.100;2022-10-16T13:53:13;0.90;;;0.40;;
39782;SDS011;25462;51.164;17.100;2022-10-16T13:58:18;0.60;;;0.60;;
39782;SDS011;25462;51.164;17.100;2022-10-16T14:03:23;0.10;;;0.10;;
39782;SDS011;25462;51.164;17.100;2022-10-16T14:08:28;0.30;;;0.30;;
39782;SDS011;25462;51.164;17.100;2022-10-16T14:13:39;0.20;;;0.20;;
39782;SDS011;25462;51.164;17.100;2022-10-16T14:18:51;0.60;;;0.50;;
39782;SDS011;25462;51.164;17.100;2022-10-16T14:23:59;0.60;;;0.60;;
39782;SDS011;25462;51.164;17.100;2022-10-16T14:29:18;0.80;;;0.40;;
39782;SDS011;25462;51.164;17.100;2022-10-16T14:34:36;0.00;;;0.00;;
39782;SDS011;25462;51.164;17.100;2022-10-16T14:39:41;0.70;;;0.70;;
39782;SDS011;25462;51.164;17.100;2022-10-16T14:44:50;0.10;;;0.10;;
39782;SDS011;25462;51.164;17.100;2022-10-16T14:49:58;0.10;;;0.10;;
39782;SDS011;25462;51.164;17.100;2022-10-16T14:55:03;1.00;;;0.50;;
39782;SDS011;25462;51.164;17.100;2022-10-16T15:00:13;0.20;;;0.10;;
39782;SDS011;25462;51.164;17.100;2022-10-16T15:05:21;0.10;;;0.10;;
39782;SDS011;25462;51.164;17.100;2022-10-16T15:10:40;1.90;;;0.60;;
39782;SDS011;25462;51.164;17.100;2022-10-16T15:15:46;0.80;;;0.80;;
39782;SDS011;25462;51.164;17.100;2022-10-16T15:20:52;1.10;;;0.30;;
39782;SDS011;25462;51.164;17.100;2022-10-16T15:25:56;0.30;;;0.30;;
39782;SDS011;25462;51.164;17.100;2022-10-16T15:30:59;0.50;;;0.50;;
39782;SDS011;25462;51.164;17.100;2022-10-16T15:36:03;0.60;;;0.60;;
39782;SDS011;25462;51.164;17.100;2022-10-16T15:41:06;0.60;;;0.50;;
39782;SDS011;25462;51.164;17.100;2022-10-16T15:46:12;0.20;;;0.20;;
39782;SDS011;25462;51.164;17.100;2022-10-16T15:51:20;0.10;;;0.10;;
39782;SDS011;25462;51.164;17.100;2022-10-16T15:56:30;0.70;;;0.70;;
39782;SDS011;25462;51.164;17.100;2022-10-16T16:01:39;1.20;;;1.10;;
39782;SDS011;25462;51.164;17.100;2022-10-16T16:06:50;0.30;;;0.30;;
39782;SDS011;25462;51.164;17.100;2022-10-16T16:11:54;1.60;;;0.90;;
39782;SDS011;25462;51.164;17.100;2022-10-16T16:17:17;0.80;;;0.60;;
39782;SDS011;25462;51.164;17.100;2022-10-16T16:22:51;0.70;;;0.50;;
39782;SDS011;25462;51.164;17.100;2022-10-16T16:27:56;0.50;;;0.50;;
39782;SDS011;25462;51.164;17.100;2022-10-16T16:33:13;2.30;;;1.00;;
39782;SDS011;25462;51.164;17.100;2022-10-16T16:38:18;1.40;;;1.40;;
39782;SDS011;25462;51.164;17.100;2022-10-16T16:43:23;1.80;;;0.80;;
39782;SDS011;25462;51.164;17.100;2022-10-16T16:48:27;1.20;;;1.10;;
39782;SDS011;25462;51.164;17.100;2022-10-16T16:53:33;1.20;;;0.70;;
39782;SDS011;25462;51.164;17.100;2022-10-16T16:58:39;1.10;;;0.80;;
39782;SDS011;25462;51.164;17.100;2022-10-16T17:03:47;1.40;;;1.30;;
39782;SDS011;25462;51.164;17.100;2022-10-16T17:08:54;0.60;;;0.60;;
39782;SDS011;25462;51.164;17.100;2022-10-16T17:14:11;0.30;;;0.30;;
39782;SDS011;25462;51.164;17.100;2022-10-16T17:19:22;1.10;;;0.90;;
39782;SDS011;25462;51.164;17.100;2022-10-16T17:24:26;3.00;;;1.50;;
39782;SDS011;25462;51.164;17.100;2022-10-16T17:29:35;1.30;;;1.20;;
39782;SDS011;25462;51.164;17.100;2022-10-16T17:34:52;1.00;;;1.00;;
39782;SDS011;25462;51.164;17.100;2022-10-16T17:40:15;1.10;;;1.00;;
39782;SDS011;25462;51.164;17.100;2022-10-16T17:45:18;0.70;;;0.70;;
39782;SDS011;25462;51.164;17.100;2022-10-16T17:50:23;2.30;;;1.70;;
39782;SDS011;25462;51.164;17.100;2022-10-16T17:55:38;2.30;;;1.50;;
39782;SDS011;25462;51.164;17.100;2022-10-16T18:00:48;0.60;;;0.40;;
39782;SDS011;25462;51.164;17.100;2022-10-16T18:05:56;1.60;;;0.60;;
39782;SDS011;25462;51.164;17.100;2022-10-16T18:11:08;2.30;;;1.10;;
39782;SDS011;25462;51.164;17.100;2022-10-16T18:16:19;0.70;;;0.60;;
39782;SDS011;25462;51.164;17.100;2022-10-16T18:21:29;2.50;;;1.00;;
39782;SDS011;25462;51.164;17.100;2022-10-16T18:26:33;0.50;;;0.50;;
39782;SDS011;25462;51.164;17.100;2022-10-16T18:31:42;2.00;;;1.00;;
39782;SDS011;25462;51.164;17.100;2022-10-16T18:37:00;1.10;;;1.00;;
39782;SDS011;25462;51.164;17.100;2022-10-16T18:42:12;2.10;;;1.40;;
39782;SDS011;25462;51.164;17.100;2022-10-16T18:47:23;2.10;;;1.60;;
39782;SDS011;25462;51.164;17.100;2022-10-16T18:52:29;1.60;;;1.00;;
39782;SDS011;25462;51.164;17.100;2022-10-16T18:57:34;1.00;;;0.80;;
39782;SDS011;25462;51.164;17.100;2022-10-16T19:02:41;2.30;;;1.20;;
39782;SDS011;25462;51.164;17.100;2022-10-16T19:07:48;1.50;;;1.20;;
39782;SDS011;25462;51.164;17.100;2022-10-16T19:13:01;4.80;;;1.60;;
39782;SDS011;25462;51.164;17.100;2022-10-16T19:18:12;1.90;;;1.60;;
39782;SDS011;25462;51.164;17.100;2022-10-16T19:23:28;1.90;;;1.30;;
39782;SDS011;25462;51.164;17.100;2022-10-16T19:28:43;1.20;;;1.10;;
39782;SDS011;25462;51.164;17.100;2022-10-16T19:33:56;2.70;;;1.10;;
39782;SDS011;25462;51.164;17.100;2022-10-16T19:39:37;4.30;;;2.30;;
39782;SDS011;25462;51.164;17.100;2022-10-16T19:44:44;6.00;;;2.40;;
39782;SDS011;25462;51.164;17.100;2022-10-16T19:49:52;2.00;;;1.60;;
39782;SDS011;25462;51.164;17.100;2022-10-16T19:54:59;1.40;;;1.10;;
39782;SDS011;25462;51.164;17.100;2022-10-16T20:00:21;0.50;;;0.50;;
39782;SDS011;25462;51.164;17.100;2022-10-16T20:05:31;2.90;;;1.40;;
39782;SDS011;25462;51.164;17.100;2022-10-16T20:10:37;3.60;;;2.70;;
39782;SDS011;25462;51.164;17.100;2022-10-16T20:16:09;0.70;;;0.40;;
39782;SDS011;25462;51.164;17.100;2022-10-16T20:21:22;3.10;;;1.70;;
39782;SDS011;25462;51.164;17.100;2022-10-16T20:26:31;5.10;;;0.90;;
39782;SDS011;25462;51.164;17.100;2022-10-16T20:31:39;6.20;;;2.70;;
39782;SDS011;25462;51.164;17.100;2022-10-16T20:36:48;2.50;;;2.00;;
39782;SDS011;25462;51.164;17.100;2022-10-16T20:42:09;1.00;;;0.90;;
39782;SDS011;25462;51.164;17.100;2022-10-16T20:47:22;4.10;;;3.10;;
39782;SDS011;25462;51.164;17.100;2022-10-16T20:52:33;8.40;;;2.70;;
39782;SDS011;25462;51.164;17.100;2022-10-16T20:57:47;1.50;;;1.40;;
39782;SDS011;25462;51.164;17.100;2022-10-16T21:02:51;4.20;;;1.90;;
39782;SDS011;25462;51.164;17.100;2022-10-16T21:08:01;3.20;;;1.60;;
39782;SDS011;25462;51.164;17.100;2022-10-16T21:13:15;5.50;;;1.90;;
39782;SDS011;25462;51.164;17.100;2022-10-16T21:23:40;5.40;;;2.80;;
39782;SDS011;25462;51.164;17.100;2022-10-16T21:29:05;4.20;;;3.30;;
39782;SDS011;25462;51.164;17.100;2022-10-16T21:34:20;3.40;;;2.30;;
39782;SDS011;25462;51.164;17.100;2022-10-16T21:39:44;8.00;;;2.90;;
39782;SDS011;25462;51.164;17.100;2022-10-16T21:44:49;3.20;;;2.20;;
39782;SDS011;25462;51.164;17.100;2022-10-16T21:49:57;3.30;;;2.90;;
39782;SDS011;25462;51.164;17.100;2022-10-16T21:55:37;8.20;;;2.20;;
39782;SDS011;25462;51.164;17.100;2022-10-16T22:01:09;3.20;;;2.90;;
39782;SDS011;25462;51.164;17.100;2022-10-16T22:06:30;7.90;;;2.20;;
39782;SDS011;25462;51.164;17.100;2022-10-16T22:11:53;3.60;;;2.70;;
39782;SDS011;25462;51.164;17.100;2022-10-16T22:17:17;7.00;;;3.80;;
39782;SDS011;25462;51.164;17.100;2022-10-16T22:22:36;2.40;;;2.20;;
39782;SDS011;25462;51.164;17.100;2022-10-16T22:27:52;4.50;;;2.90;;
39782;SDS011;25462;51.164;17.100;2022-10-16T22:32:58;5.20;;;2.80;;
39782;SDS011;25462;51.164;17.100;2022-10-16T22:38:02;5.10;;;2.00;;
39782;SDS011;25462;51.164;17.100;2022-10-16T22:43:10;6.00;;;3.40;;
39782;SDS011;25462;51.164;17.100;2022-10-16T22:48:13;3.30;;;2.10;;
39782;SDS011;25462;51.164;17.100;2022-10-16T22:53:18;4.10;;;3.00;;
39782;SDS011;25462;51.164;17.100;2022-10-16T22:58:24;1.60;;;1.50;;
39782;SDS011;25462;51.164;17.100;2022-10-16T23:03:36;4.00;;;2.90;;
39782;SDS011;25462;51.164;17.100;2022-10-16T23:08:41;3.50;;;3.10;;
39782;SDS011;25462;51.164;17.100;2022-10-16T23:13:44;1.40;;;1.30;;
39782;SDS011;25462;51.164;17.100;2022-10-16T23:18:48;4.40;;;2.30;;
39782;SDS011;25462;51.164;17.100;2022-10-16T23:23:52;12.60;;;2.70;;
39782;SDS011;25462;51.164;17.100;2022-10-16T23:29:00;5.80;;;4.00;;
39782;SDS011;25462;51.164;17.100;2022-10-16T23:34:06;2.10;;;2.00;;
39782;SDS011;25462;51.164;17.100;2022-10-16T23:39:12;7.90;;;3.40;;
39782;SDS011;25462;51.164;17.100;2022-10-16T23:44:16;5.10;;;2.60;;
39782;SDS011;25462;51.164;17.100;2022-10-16T23:49:20;3.80;;;2.80;;
39782;SDS011;25462;51.164;17.100;2022-10-16T23:54:26;4.70;;;2.80;;
39782;SDS011;25462;51.164;17.100;2022-10-16T23:59:34;2.90;;;1.90;;
